createdAt,value
2016-07-25T17:18:15.285Z,745.09
2016-07-25T17:18:23.917Z,745.07
2016-07-25T17:19:23.906Z,745.11
2016-07-25T17:20:23.909Z,745.09
2016-07-25T17:21:23.897Z,745.07
2016-07-25T17:22:23.898Z,745.11
2016-07-25T17:23:23.886Z,745.08
2016-07-25T17:24:23.889Z,745.13
2016-07-25T17:25:23.878Z,745.07
2016-07-25T17:26:23.879Z,744.99
2016-07-25T17:27:23.875Z,745.02
2016-07-25T17:28:23.863Z,745.08
2016-07-25T17:29:23.857Z,745.07
2016-07-25T17:30:23.853Z,745.1
2016-07-25T17:31:23.855Z,745.05
2016-07-25T17:33:23.837Z,745.08
2016-07-25T17:34:23.840Z,745.07
2016-07-25T17:35:23.834Z,745.12
2016-07-25T17:36:23.828Z,745.12
2016-07-25T17:37:23.826Z,745.15
2016-07-25T17:38:23.819Z,745.13
2016-07-25T17:39:23.808Z,745.11
2016-07-25T17:40:23.807Z,745.06
2016-07-25T17:41:23.796Z,745.09
2016-07-25T17:42:23.790Z,745.11
2016-07-25T17:43:23.787Z,745.11
2016-07-25T17:44:23.786Z,745.16
2016-07-25T17:45:23.782Z,745.15
2016-07-25T17:46:23.777Z,745.12
2016-07-25T17:48:23.764Z,745.14
2016-07-25T17:49:23.759Z,745.11
2016-07-25T17:50:23.754Z,745.1
2016-07-25T17:51:23.748Z,745.12
2016-07-25T17:52:23.736Z,745.07
2016-07-25T17:53:23.734Z,745.09
2016-07-25T17:54:23.725Z,745.06
2016-07-25T17:55:23.720Z,745.09
2016-07-25T17:56:23.721Z,745.09
2016-07-25T17:57:23.710Z,745.13
2016-07-25T17:58:23.703Z,745.15
2016-07-25T17:59:23.706Z,745.13
2016-07-25T18:00:23.701Z,745.11
2016-07-25T18:01:23.695Z,745.11
2016-07-25T18:03:23.677Z,745.17
2016-07-25T18:04:23.672Z,745.17
2016-07-25T18:05:23.674Z,745.13
2016-07-25T18:06:23.668Z,745.1
2016-07-25T18:07:23.656Z,745.16
2016-07-25T18:08:23.651Z,745.14
2016-07-25T18:09:23.645Z,745.09
2016-07-25T18:10:23.647Z,745.1
2016-07-25T18:11:23.641Z,745.13
2016-07-25T18:12:23.631Z,745.11
2016-07-25T18:13:23.631Z,745.12
2016-07-25T18:14:23.621Z,745.1
2016-07-25T18:15:23.617Z,745.13
2016-07-25T18:16:23.615Z,745.13
2016-07-25T18:18:23.603Z,745.16
2016-07-25T18:19:23.598Z,745.18
2016-07-25T18:20:23.585Z,745.2
2016-07-25T18:21:23.587Z,745.22
2016-07-25T18:22:23.573Z,745.23
2016-07-25T18:23:23.569Z,745.22
2016-07-25T18:24:23.561Z,745.22
2016-07-25T18:25:23.556Z,745.25
2016-07-25T18:26:23.552Z,745.27
2016-07-25T18:27:23.547Z,745.26
2016-07-25T18:28:23.540Z,745.25
2016-07-25T18:29:23.540Z,745.24
2016-07-25T18:30:23.535Z,745.24
2016-07-25T18:31:23.523Z,745.24
2016-07-25T18:33:23.518Z,745.29
2016-07-25T18:34:23.505Z,745.29
2016-07-25T18:35:23.505Z,745.31
2016-07-25T18:36:23.500Z,745.29
2016-07-25T18:37:23.486Z,745.25
2016-07-25T18:38:23.489Z,745.3
2016-07-25T18:39:23.474Z,745.27
2016-07-25T18:40:23.476Z,745.3
2016-07-25T18:41:23.463Z,745.31
2016-07-25T18:42:23.463Z,745.34
2016-07-25T18:43:23.452Z,745.41
2016-07-25T18:44:23.446Z,745.33
2016-07-25T18:45:23.446Z,745.36
2016-07-25T18:46:23.433Z,745.36
2016-07-25T18:48:23.428Z,745.37
2016-07-25T18:49:23.421Z,745.41
2016-07-25T18:50:23.409Z,745.39
2016-07-25T18:51:23.403Z,745.39
2016-07-25T18:52:23.403Z,745.41
2016-07-25T18:53:23.390Z,745.43
2016-07-25T18:54:23.390Z,745.42
2016-07-25T18:55:23.377Z,745.45
2016-07-25T18:56:23.372Z,745.45
2016-07-25T18:57:23.372Z,745.42
2016-07-25T18:58:23.360Z,745.42
2016-07-25T18:59:23.360Z,745.44
2016-07-25T19:00:23.347Z,745.47
2016-07-25T19:01:23.348Z,745.43
2016-07-25T19:03:23.330Z,745.44
2016-07-25T19:04:23.330Z,745.42
2016-07-25T19:05:23.324Z,745.4
2016-07-25T19:06:23.312Z,745.42
2016-07-25T19:07:23.306Z,745.38
2016-07-25T19:08:23.305Z,745.4
2016-07-25T19:09:23.300Z,745.42
2016-07-25T19:10:23.286Z,745.42
2016-07-25T19:11:23.286Z,745.43
2016-07-25T19:12:23.276Z,745.4
2016-07-25T19:13:23.275Z,745.43
2016-07-25T19:14:23.262Z,745.42
2016-07-25T19:15:23.255Z,745.45
2016-07-25T19:16:23.248Z,745.52
2016-07-25T19:18:23.243Z,745.51
2016-07-25T19:19:23.235Z,745.54
2016-07-25T19:20:23.221Z,745.54
2016-07-25T19:21:23.222Z,745.57
2016-07-25T19:22:23.207Z,745.56
2016-07-25T19:23:23.201Z,745.58
2016-07-25T19:24:23.200Z,745.55
2016-07-25T19:25:23.196Z,745.57
2016-07-25T19:26:23.183Z,745.57
2016-07-25T19:27:23.174Z,745.62
2016-07-25T19:28:23.169Z,745.59
2016-07-25T19:29:23.169Z,745.63
2016-07-25T19:30:23.155Z,745.66
2016-07-25T19:31:23.157Z,745.67
2016-07-25T19:32:23.150Z,745.65
2016-07-25T19:33:23.143Z,745.68
2016-07-25T19:34:23.131Z,745.67
2016-07-25T19:35:23.124Z,745.69
2016-07-25T19:36:23.123Z,745.66
2016-07-25T19:37:23.111Z,745.65
2016-07-25T19:38:23.113Z,745.63
2016-07-25T19:39:23.108Z,745.64
2016-07-25T19:40:23.094Z,745.66
2016-07-25T19:41:23.095Z,745.66
2016-07-25T19:42:23.090Z,745.64
2016-07-25T19:43:23.078Z,745.64
2016-07-25T19:44:23.078Z,745.65
2016-07-25T19:45:23.072Z,745.7
2016-07-25T19:46:23.064Z,745.64
2016-07-25T19:47:23.060Z,745.68
2016-07-25T19:48:23.055Z,745.71
2016-07-25T19:49:23.042Z,745.71
2016-07-25T19:50:23.043Z,745.65
2016-07-25T19:51:23.031Z,745.72
2016-07-25T19:52:23.032Z,745.72
2016-07-25T19:53:23.026Z,745.68
2016-07-25T19:54:23.014Z,745.7
2016-07-25T19:55:23.014Z,745.69
2016-07-25T19:56:23.004Z,745.7
2016-07-25T19:57:22.998Z,745.71
2016-07-25T19:58:22.992Z,745.74
2016-07-25T19:59:22.992Z,745.73
2016-07-25T20:00:22.986Z,745.74
2016-07-25T20:01:22.981Z,745.72
2016-07-25T20:02:22.976Z,745.72
2016-07-25T20:03:22.969Z,745.74
2016-07-25T20:04:22.957Z,745.64
2016-07-25T20:05:22.959Z,745.73
2016-07-25T20:06:22.946Z,745.74
2016-07-25T20:07:22.946Z,745.74
2016-07-25T20:08:22.945Z,745.72
2016-07-25T20:09:22.930Z,745.74
2016-07-25T20:10:22.931Z,745.72
2016-07-25T20:11:22.918Z,745.68
2016-07-25T20:12:22.918Z,745.73
2016-07-25T20:13:22.913Z,745.68
2016-07-25T20:14:22.908Z,745.65
2016-07-25T20:15:22.896Z,745.64
2016-07-25T20:16:22.891Z,745.62
2016-07-25T20:17:22.883Z,745.65
2016-07-25T20:18:22.879Z,745.62
2016-07-25T20:19:22.881Z,745.6
2016-07-25T20:20:22.875Z,745.6
2016-07-25T20:21:22.863Z,745.61
2016-07-25T20:22:22.857Z,745.58
2016-07-25T20:23:22.859Z,745.63
2016-07-25T20:24:22.854Z,745.61
2016-07-25T20:25:22.840Z,745.61
2016-07-25T20:26:22.842Z,745.61
2016-07-25T20:27:22.837Z,745.6
2016-07-25T20:28:22.824Z,745.62
2016-07-25T20:29:22.826Z,745.6
2016-07-25T20:30:22.820Z,745.63
2016-07-25T20:31:22.816Z,745.66
2016-07-25T20:32:22.808Z,745.69
2016-07-25T20:33:22.803Z,745.69
2016-07-25T20:34:22.790Z,745.72
2016-07-25T20:35:22.786Z,745.74
2016-07-25T20:36:22.784Z,745.7
2016-07-25T20:37:22.779Z,745.68
2016-07-25T20:38:22.774Z,745.71
2016-07-25T20:39:22.767Z,745.65
2016-07-25T20:40:22.761Z,745.69
2016-07-25T20:41:22.752Z,745.67
2016-07-25T20:42:22.743Z,745.68
2016-07-25T20:43:22.737Z,745.64
2016-07-25T20:44:22.730Z,745.67
2016-07-25T20:45:22.731Z,745.66
2016-07-25T20:46:22.725Z,745.63
2016-07-25T20:47:22.713Z,745.63
2016-07-25T20:48:22.714Z,745.66
2016-07-25T20:49:22.700Z,745.69
2016-07-25T20:50:22.702Z,745.63
2016-07-25T20:51:22.693Z,745.65
2016-07-25T20:52:22.689Z,745.64
2016-07-25T20:53:22.677Z,745.66
2016-07-25T20:54:22.670Z,745.62
2016-07-25T20:55:22.671Z,745.57
2016-07-25T20:56:22.659Z,745.6
2016-07-25T20:57:22.659Z,745.62
2016-07-25T20:58:22.653Z,745.6
2016-07-25T20:59:22.648Z,745.59
2016-07-25T21:00:22.642Z,745.58
2016-07-25T21:01:22.629Z,745.61
2016-07-25T21:02:22.623Z,745.61
2016-07-25T21:03:22.617Z,745.57
2016-07-25T21:04:22.619Z,745.58
2016-07-25T21:05:22.604Z,745.54
2016-07-25T21:06:22.607Z,745.55
2016-07-25T21:07:22.602Z,745.54
2016-07-25T21:08:22.595Z,745.52
2016-07-25T21:09:22.581Z,745.56
2016-07-25T21:10:22.576Z,745.53
2016-07-25T21:11:22.572Z,745.54
2016-07-25T21:12:22.564Z,745.51
2016-07-25T21:13:22.559Z,745.52
2016-07-25T21:14:22.553Z,745.52
2016-07-25T21:15:22.555Z,745.52
2016-07-25T21:16:22.548Z,745.49
2016-07-25T21:17:22.542Z,745.51
2016-07-25T21:18:22.537Z,745.51
2016-07-25T21:19:22.528Z,745.51
2016-07-25T21:20:22.525Z,745.51
2016-07-25T21:21:22.519Z,745.52
2016-07-25T21:22:22.514Z,745.51
2016-07-25T21:23:22.508Z,745.53
2016-07-25T21:24:22.503Z,745.53
2016-07-25T21:25:22.490Z,745.53
2016-07-25T21:26:22.485Z,745.49
2016-07-25T21:27:22.486Z,745.51
2016-07-25T21:28:22.480Z,745.46
2016-07-25T21:29:22.476Z,745.5
2016-07-25T21:30:22.469Z,745.5
2016-07-25T21:31:22.464Z,745.48
2016-07-25T21:32:22.452Z,745.45
2016-07-25T21:33:22.453Z,745.5
2016-07-25T21:34:22.440Z,745.47
2016-07-25T21:35:22.438Z,745.47
2016-07-25T21:36:22.435Z,745.47
2016-07-25T21:37:22.422Z,745.45
2016-07-25T21:38:22.422Z,745.43
2016-07-25T21:39:22.416Z,745.4
2016-07-25T21:40:22.404Z,745.36
2016-07-25T21:41:22.405Z,745.41
2016-07-25T21:42:22.402Z,745.34
2016-07-25T21:43:22.393Z,745.39
2016-07-25T21:44:22.387Z,745.36
2016-07-25T21:45:22.374Z,745.37
2016-07-25T21:46:22.368Z,745.38
2016-07-25T21:47:22.369Z,745.35
2016-07-25T21:48:22.357Z,745.4
2016-07-25T21:49:22.357Z,745.37
2016-07-25T21:50:22.351Z,745.4
2016-07-25T21:51:22.345Z,745.37
2016-07-25T21:52:22.331Z,745.35
2016-07-25T21:53:22.327Z,745.34
2016-07-25T21:54:22.328Z,745.32
2016-07-25T21:55:22.315Z,745.32
2016-07-25T21:56:22.308Z,745.3
2016-07-25T21:57:22.302Z,745.28
2016-07-25T21:58:22.297Z,745.28
2016-07-25T21:59:22.291Z,745.3
2016-07-25T22:00:22.285Z,745.22
2016-07-25T22:01:22.285Z,745.21
2016-07-25T22:02:22.279Z,745.22
2016-07-25T22:04:22.268Z,745.23
2016-07-25T22:05:22.263Z,745.21
2016-07-25T22:06:22.257Z,745.25
2016-07-25T22:07:22.250Z,745.21
2016-07-25T22:08:22.244Z,745.19
2016-07-25T22:09:22.239Z,745.2
2016-07-25T22:10:22.227Z,745.19
2016-07-25T22:11:22.226Z,745.14
2016-07-25T22:12:22.221Z,745.2
2016-07-25T22:13:22.215Z,745.15
2016-07-25T22:14:22.208Z,745.15
2016-07-25T22:15:22.208Z,745.17
2016-07-25T22:16:22.196Z,745.13
2016-07-25T22:17:22.191Z,745.16
2016-07-25T22:19:22.172Z,745.1
2016-07-25T22:20:22.172Z,745.06
2016-07-25T22:21:22.167Z,745.1
2016-07-25T22:22:22.161Z,745.07
2016-07-25T22:23:22.148Z,745.09
2016-07-25T22:24:22.142Z,745.08
2016-07-25T22:25:22.142Z,745.09
2016-07-25T22:26:22.129Z,745.06
2016-07-25T22:27:22.122Z,745.05
2016-07-25T22:28:22.117Z,745.05
2016-07-25T22:29:22.111Z,745.07
2016-07-25T22:30:22.110Z,745.07
2016-07-25T22:31:22.105Z,745.04
2016-07-25T22:32:22.098Z,745.05
2016-07-25T22:34:22.086Z,745.06
2016-07-25T22:35:22.080Z,745.04
2016-07-25T22:36:22.065Z,745.09
2016-07-25T22:37:22.067Z,745.04
2016-07-25T22:38:22.052Z,745.06
2016-07-25T22:39:22.054Z,745.02
2016-07-25T22:40:22.040Z,745.04
2016-07-25T22:41:22.033Z,745.05
2016-07-25T22:42:22.028Z,745.06
2016-07-25T22:43:22.027Z,745.09
2016-07-25T22:44:22.021Z,745.07
2016-07-25T22:45:22.015Z,745.09
2016-07-25T22:46:22.008Z,745.08
2016-07-25T22:47:21.994Z,745.07
2016-07-25T22:49:21.989Z,745.02
2016-07-25T22:50:21.989Z,745.02
2016-07-25T22:51:21.976Z,745
2016-07-25T22:52:21.970Z,745
2016-07-25T22:53:21.964Z,745.01
2016-07-25T22:54:21.956Z,745
2016-07-25T22:55:21.951Z,745
2016-07-25T22:56:21.938Z,745.05
2016-07-25T22:57:21.939Z,745.01
2016-07-25T22:58:21.932Z,745.02
2016-07-25T22:59:21.918Z,745.03
2016-07-25T23:00:21.920Z,745.02
2016-07-25T23:01:21.906Z,745.05
2016-07-25T23:02:21.902Z,744.98
2016-07-25T23:04:21.896Z,744.98
2016-07-25T23:05:21.888Z,745
2016-07-25T23:06:21.882Z,745.01
2016-07-25T23:07:21.876Z,745.02
2016-07-25T23:08:21.871Z,745.01
2016-07-25T23:09:21.858Z,745.03
2016-07-25T23:10:21.858Z,745.03
2016-07-25T23:11:21.845Z,745.06
2016-07-25T23:12:21.846Z,745.03
2016-07-25T23:13:21.832Z,745.07
2016-07-25T23:14:21.827Z,745
2016-07-25T23:15:21.828Z,745.05
2016-07-25T23:16:21.822Z,745.04
2016-07-25T23:17:21.815Z,745.05
2016-07-25T23:19:21.803Z,745.04
2016-07-25T23:20:21.796Z,745.01
2016-07-25T23:21:21.789Z,745.02
2016-07-25T23:22:21.784Z,745
2016-07-25T23:23:21.778Z,745.02
2016-07-25T23:24:21.772Z,744.99
2016-07-25T23:25:21.759Z,745.04
2016-07-25T23:26:21.760Z,745.06
2016-07-25T23:27:21.755Z,745.1
2016-07-25T23:28:21.743Z,745.05
2016-07-25T23:29:21.740Z,745.06
2016-07-25T23:30:21.734Z,745.07
2016-07-25T23:31:21.721Z,745.08
2016-07-25T23:32:21.722Z,745.09
2016-07-25T23:34:21.703Z,745.1
2016-07-25T23:35:21.697Z,745.11
2016-07-25T23:36:21.690Z,745.1
2016-07-25T23:37:21.683Z,745.1
2016-07-25T23:38:21.684Z,745.09
2016-07-25T23:39:21.669Z,745.07
2016-07-25T23:40:21.671Z,745.08
2016-07-25T23:41:21.658Z,745.12
2016-07-25T23:42:21.652Z,745.06
2016-07-25T23:43:21.652Z,745.08
2016-07-25T23:44:21.645Z,745.08
2016-07-25T23:45:21.642Z,745.09
2016-07-25T23:46:21.635Z,745.11
2016-07-25T23:47:21.630Z,745.11
2016-07-25T23:49:21.617Z,745.07
2016-07-25T23:50:21.605Z,745.08
2016-07-25T23:51:21.606Z,745.1
2016-07-25T23:52:21.601Z,745.08
2016-07-25T23:53:21.594Z,745.11
2016-07-25T23:54:21.588Z,745.08
2016-07-25T23:55:21.577Z,745.08
2016-07-25T23:56:21.577Z,745.1
2016-07-25T23:57:21.565Z,745.13
2016-07-25T23:58:21.563Z,745.12
2016-07-25T23:59:21.553Z,745.1
